Time;durP1;ratioP1;P1;durP2;ratioP2;P2;SDS_P1;SDS_P2;PMS_P1;PMS_P2;Temp;Humidity;BMP_temperature;BMP_pressure;BME280_temperature;BME280_humidity;BME280_pressure;Samples;Min_cycle;Max_cycle;Signal;HPM_P1;HPM_P2
2021/04/13 00:01:31;;;;;;;0.40;0.30;;;;;;;2.40;87.69;102185.16;5073236;28;20981;-71
2021/04/13 00:04:05;;;;;;;0.40;0.30;;;;;;;2.24;88.77;102176.53;5073124;28;20469;-71
2021/04/13 00:06:34;;;;;;;0.40;0.30;;;;;;;2.20;88.59;102175.28;5073545;28;20429;-71
2021/04/13 00:09:13;;;;;;;0.40;0.30;;;;;;;2.11;88.48;102175.72;5073526;28;20454;-71
2021/04/13 00:11:40;;;;;;;0.60;0.50;;;;;;;2.00;89.59;102182.50;5073515;28;20429;-71
2021/04/13 00:14:08;;;;;;;0.40;0.30;;;;;;;1.99;89.08;102181.69;5073342;28;20465;-71
2021/04/13 00:16:35;;;;;;;0.40;0.30;;;;;;;1.93;89.54;102185.16;5073315;28;20456;-71
2021/04/13 00:19:04;;;;;;;0.50;0.43;;;;;;;1.88;89.34;102184.13;5073159;28;20803;-71
2021/04/13 00:21:33;;;;;;;0.40;0.30;;;;;;;1.84;90.64;102181.03;5073205;28;20488;-71
2021/04/13 00:24:04;;;;;;;0.53;0.53;;;;;;;1.82;89.78;102176.94;5073244;28;20488;-71
2021/04/13 00:26:32;;;;;;;0.47;0.40;;;;;;;1.73;89.86;102176.28;5073346;28;20430;-72
2021/04/13 00:29:00;;;;;;;0.50;0.40;;;;;;;1.56;91.56;102183.84;5073247;28;20465;-71
2021/04/13 00:31:41;;;;;;;0.50;0.40;;;;;;;1.53;91.82;102178.91;5073163;28;20442;-72
2021/04/13 00:34:14;;;;;;;0.80;0.70;;;;;;;1.56;91.10;102188.38;5073168;28;20461;-71
2021/04/13 00:36:41;;;;;;;0.40;0.30;;;;;;;1.58;91.12;102184.47;5089430;28;20870;-71
2021/04/13 00:39:17;;;;;;;0.40;0.30;;;;;;;1.56;90.99;102186.53;5093219;28;20436;-72
2021/04/13 00:41:46;;;;;;;0.40;0.30;;;;;;;1.58;91.19;102191.66;5093138;28;20491;-72
2021/04/13 00:44:13;;;;;;;1.03;0.97;;;;;;;1.58;90.71;102187.13;5092874;28;20976;-71
2021/04/13 00:46:45;;;;;;;0.40;0.30;;;;;;;1.53;91.43;102189.59;5093274;28;21024;-72
2021/04/13 00:49:13;;;;;;;0.40;0.30;;;;;;;1.58;92.66;102180.97;5093271;28;20421;-71
2021/04/13 00:51:43;;;;;;;0.40;0.30;;;;;;;1.65;92.44;102179.97;5093428;28;20447;-72
2021/04/13 00:54:13;;;;;;;1.57;0.60;;;;;;;1.61;93.27;102178.72;5093008;28;20792;-71
2021/04/13 00:56:41;;;;;;;0.40;0.30;;;;;;;1.63;93.29;102178.50;5093256;28;20821;-72
2021/04/13 00:59:11;;;;;;;0.40;0.30;;;;;;;1.65;94.06;102182.63;5093164;28;20440;-72
2021/04/13 01:01:41;;;;;;;0.40;0.40;;;;;;;1.70;93.53;102188.19;5093006;28;20491;-71
2021/04/13 01:04:11;;;;;;;0.50;0.50;;;;;;;1.64;93.79;102191.69;5093657;28;20521;-70
2021/04/13 01:06:37;;;;;;;0.40;0.30;;;;;;;1.65;93.95;102182.63;5097096;28;20432;-71
2021/04/13 01:09:09;;;;;;;1.27;0.60;;;;;;;1.61;93.78;102178.72;5096305;28;20456;-71
2021/04/13 01:11:42;;;;;;;0.40;0.40;;;;;;;1.64;93.64;102175.66;5097207;28;20834;-71
2021/04/13 01:14:10;;;;;;;0.73;0.73;;;;;;;1.63;93.81;102183.84;5096578;28;20460;-70
2021/04/13 01:16:41;;;;;;;0.40;0.40;;;;;;;1.62;92.67;102176.88;5097059;28;20436;-71
2021/04/13 01:19:12;;;;;;;0.53;0.50;;;;;;;1.59;91.56;102187.94;5096827;28;20424;-71
2021/04/13 01:21:49;;;;;;;0.70;0.57;;;;;;;1.44;92.08;102180.13;5096793;28;20459;-71
2021/04/13 01:24:22;;;;;;;0.40;0.30;;;;;;;1.50;91.07;102179.28;5101749;28;20487;-71
2021/04/13 01:26:52;;;;;;;0.40;0.30;;;;;;;1.37;91.56;102181.94;5096843;28;20432;-71
2021/04/13 01:29:21;;;;;;;0.40;0.30;;;;;;;1.38;91.10;102183.59;5096303;28;20451;-71
2021/04/13 01:31:51;;;;;;;0.40;0.40;;;;;;;1.36;91.58;102183.78;5096682;28;20440;-71
2021/04/13 01:34:22;;;;;;;0.50;0.30;;;;;;;1.36;90.55;102180.28;5096394;28;20494;-71
2021/04/13 01:37:04;;;;;;;0.40;0.40;;;;;;;1.13;90.47;102183.28;5096574;28;20558;-71
2021/04/13 01:39:34;;;;;;;0.50;0.40;;;;;;;1.22;90.99;102180.25;5096415;28;20424;-71
2021/04/13 01:42:01;;;;;;;0.77;0.40;;;;;;;1.03;92.15;102186.31;5096299;28;20482;-71
2021/04/13 01:44:34;;;;;;;0.80;0.50;;;;;;;1.03;91.91;102189.00;5096255;28;20456;-71
2021/04/13 01:47:01;;;;;;;0.73;0.73;;;;;;;1.10;92.11;102176.47;5096358;28;20431;-71
2021/04/13 01:49:29;;;;;;;0.40;0.33;;;;;;;1.01;92.06;102175.81;5096240;28;20825;-71
2021/04/13 01:51:55;;;;;;;0.50;0.40;;;;;;;1.03;93.02;102177.50;5096169;28;20490;-71
2021/04/13 01:54:22;;;;;;;0.40;0.30;;;;;;;1.06;93.87;102183.22;5096043;28;21015;-71
2021/04/13 01:57:06;;;;;;;0.40;0.30;;;;;;;1.04;94.12;102184.47;5095798;28;20437;-71
2021/04/13 01:59:37;;;;;;;0.60;0.60;;;;;;;0.99;93.36;102182.41;5095776;28;20429;-71
2021/04/13 02:02:09;;;;;;;0.40;0.30;;;;;;;0.93;93.16;102191.19;5095696;28;20472;-71
2021/04/13 02:04:46;;;;;;;0.57;0.40;;;;;;;0.96;92.59;102182.78;5095605;28;20528;-71
2021/04/13 02:07:24;;;;;;;0.40;0.30;;;;;;;1.02;92.25;102187.34;5096019;28;20768;-70
2021/04/13 02:09:55;;;;;;;0.50;0.40;;;;;;;0.93;92.04;102183.16;5095984;28;20432;-70
2021/04/13 02:12:24;;;;;;;1.43;0.50;;;;;;;1.00;91.99;102184.03;5096074;28;20468;-70
2021/04/13 02:14:56;;;;;;;0.40;0.40;;;;;;;1.00;92.47;102182.19;5094831;28;20491;-71
2021/04/13 02:17:27;;;;;;;0.40;0.30;;;;;;;1.03;91.89;102189.00;5094943;28;20467;-70
2021/04/13 02:19:54;;;;;;;0.47;0.37;;;;;;;1.04;91.32;102187.97;5095632;28;20420;-70
2021/04/13 02:22:22;;;;;;;0.40;0.30;;;;;;;0.99;92.00;102191.22;5095245;28;20895;-70
2021/04/13 02:24:52;;;;;;;0.40;0.37;;;;;;;1.01;91.43;102191.00;5095204;28;20989;-70
2021/04/13 02:27:21;;;;;;;0.63;0.63;;;;;;;0.94;91.47;102190.19;5095408;28;20417;-70
2021/04/13 02:29:50;;;;;;;0.60;0.50;;;;;;;0.91;91.45;102199.38;5095702;28;20444;-70
2021/04/13 02:32:20;;;;;;;0.40;0.30;;;;;;;0.94;93.05;102195.50;5095275;28;20429;-70
2021/04/13 02:34:48;;;;;;;1.23;1.13;;;;;;;0.92;94.06;102200.19;5095032;28;20465;-70
2021/04/13 02:37:20;;;;;;;0.40;0.30;;;;;;;0.95;93.78;102199.81;5095360;28;20533;-70
2021/04/13 02:39:47;;;;;;;0.60;0.50;;;;;;;0.89;94.49;102192.63;5095149;28;20858;-69
2021/04/13 02:42:18;;;;;;;0.60;0.60;;;;;;;0.89;94.87;102203.28;5094856;28;21016;-70
2021/04/13 02:44:55;;;;;;;1.93;0.63;;;;;;;0.94;94.74;102208.84;5095131;28;20478;-70
2021/04/13 02:47:22;;;;;;;0.40;0.30;;;;;;;0.96;94.73;102201.47;5095131;28;20428;-70
2021/04/13 02:49:48;;;;;;;0.50;0.50;;;;;;;0.98;94.77;102204.78;5095046;28;20793;-70
2021/04/13 02:52:19;;;;;;;0.40;0.40;;;;;;;1.03;94.54;102199.66;5095054;28;20441;-71
2021/04/13 02:54:49;;;;;;;0.40;0.30;;;;;;;1.11;94.17;102201.34;5094828;28;20509;-71
2021/04/13 02:57:19;;;;;;;0.40;0.30;;;;;;;1.11;93.64;102201.34;5094870;28;20445;-71
2021/04/13 02:59:45;;;;;;;0.40;0.30;;;;;;;1.15;93.68;102198.09;5094928;28;20440;-71
2021/04/13 03:02:17;;;;;;;0.40;0.40;;;;;;;1.09;93.99;102198.84;5094795;28;20488;-71
2021/04/13 03:04:45;;;;;;;1.17;0.80;;;;;;;1.09;92.73;102198.84;5094362;28;20992;-72
2021/04/13 03:07:14;;;;;;;0.50;0.50;;;;;;;1.04;92.26;102201.31;5100226;28;20443;-72
2021/04/13 03:09:41;;;;;;;0.40;0.30;;;;;;;0.93;92.56;102196.50;5094976;28;20451;-71
2021/04/13 03:12:10;;;;;;;0.60;0.60;;;;;;;0.92;92.68;102205.53;5094668;28;20490;-71
2021/04/13 03:14:41;;;;;;;0.40;0.40;;;;;;;0.84;92.57;102200.34;5094437;28;20456;-71
2021/04/13 03:17:11;;;;;;;0.40;0.30;;;;;;;0.88;92.50;102202.44;5094588;28;20433;-71
2021/04/13 03:19:39;;;;;;;0.50;0.40;;;;;;;0.85;92.61;102197.50;5094574;28;20443;-69
2021/04/13 03:22:08;;;;;;;9.67;2.67;;;;;;;0.83;93.06;102204.06;5094474;28;20480;-69
2021/04/13 03:24:38;;;;;;;0.40;0.30;;;;;;;0.81;92.75;102217.59;5094353;28;20475;-69
2021/04/13 03:27:09;;;;;;;0.80;0.77;;;;;;;0.81;93.60;102206.09;5094103;28;20515;-70
2021/04/13 03:29:44;;;;;;;0.50;0.40;;;;;;;0.84;93.04;102200.34;5094431;28;20437;-69
2021/04/13 03:32:11;;;;;;;0.50;0.40;;;;;;;0.80;92.91;102199.09;5094350;28;20431;-69
2021/04/13 03:34:41;;;;;;;0.60;0.40;;;;;;;0.77;92.90;102202.19;5093863;28;21007;-70
2021/04/13 03:37:09;;;;;;;0.40;0.40;;;;;;;0.68;93.31;102198.84;5094403;28;20424;-70
2021/04/13 03:39:39;;;;;;;0.97;0.97;;;;;;;0.71;93.08;102201.13;5094162;28;20440;-70
2021/04/13 03:42:06;;;;;;;0.60;0.60;;;;;;;0.74;92.67;102206.88;5093621;28;21054;-70
2021/04/13 03:44:37;;;;;;;0.40;0.40;;;;;;;0.65;91.85;102208.03;5094012;28;20593;-69
2021/04/13 03:47:09;;;;;;;0.50;0.40;;;;;;;0.73;91.77;102204.41;5094204;28;20425;-69
2021/04/13 03:49:38;;;;;;;0.40;0.30;;;;;;;0.65;92.71;102208.03;5093758;28;20902;-69
2021/04/13 03:52:09;;;;;;;0.40;0.40;;;;;;;0.72;93.17;102208.09;5093595;28;20948;-70
2021/04/13 03:54:37;;;;;;;0.60;0.50;;;;;;;0.80;93.18;102207.09;5093859;28;20468;-69
2021/04/13 03:57:04;;;;;;;0.50;0.50;;;;;;;0.79;93.76;102222.28;5093865;28;20474;-69
2021/04/13 03:59:34;;;;;;;0.40;0.40;;;;;;;0.82;94.54;102215.75;5093795;28;20448;-70
2021/04/13 04:02:00;;;;;;;0.83;0.83;;;;;;;0.78;95.03;102215.31;5093800;28;20480;-69
2021/04/13 04:04:31;;;;;;;0.80;0.40;;;;;;;0.84;94.56;102219.03;5093333;28;20468;-69
2021/04/13 04:07:00;;;;;;;0.40;0.40;;;;;;;0.87;95.27;102211.47;5093784;28;20439;-69
2021/04/13 04:09:38;;;;;;;8.00;2.30;;;;;;;0.98;95.33;102215.44;5093409;28;20456;-69
2021/04/13 04:12:17;;;;;;;0.77;0.67;;;;;;;1.10;95.67;102216.50;5093335;28;20933;-69
2021/04/13 04:15:04;;;;;;;0.70;0.70;;;;;;;1.17;95.99;102212.03;5093609;28;20456;-69
2021/04/13 04:17:33;;;;;;;2.87;0.77;;;;;;;1.18;96.34;102213.69;5093212;28;20417;-69
2021/04/13 04:20:02;;;;;;;0.50;0.50;;;;;;;1.31;96.10;102218.25;5093115;28;20957;-69
2021/04/13 04:22:29;;;;;;;0.40;0.30;;;;;;;1.35;95.25;102216.84;5093414;28;20491;-70
2021/04/13 04:25:15;;;;;;;0.80;0.80;;;;;;;1.38;94.50;102212.97;5093382;28;20486;-70
2021/04/13 04:27:42;;;;;;;0.60;0.40;;;;;;;1.43;94.58;102221.19;5093631;28;20482;-69
2021/04/13 04:30:23;;;;;;;3.63;0.73;;;;;;;1.45;94.82;102224.47;5093481;28;20451;-69
2021/04/13 04:32:49;;;;;;;0.97;0.70;;;;;;;1.51;95.13;102227.19;5093657;28;20420;-70
2021/04/13 04:35:33;;;;;;;0.40;0.30;;;;;;;1.49;95.59;102225.72;5093318;28;21033;-70
2021/04/13 04:38:07;;;;;;;1.13;1.10;;;;;;;1.50;95.53;102222.03;5093399;28;20451;-70
2021/04/13 04:40:38;;;;;;;0.40;0.30;;;;;;;1.57;95.58;102230.88;5096727;28;20484;-71
2021/04/13 04:43:08;;;;;;;0.70;0.67;;;;;;;1.55;95.01;102235.63;5097660;28;20467;-70
2021/04/13 04:45:47;;;;;;;0.40;0.30;;;;;;;1.56;95.31;102231.91;5098078;28;20441;-70
2021/04/13 04:48:26;;;;;;;0.73;0.73;;;;;;;1.59;94.97;102236.84;5102835;28;20448;-70
2021/04/13 04:50:54;;;;;;;1.23;0.83;;;;;;;1.60;94.98;102238.50;5097382;28;20442;-71
2021/04/13 04:53:20;;;;;;;1.17;1.03;;;;;;;1.63;94.59;102235.41;5097463;28;20467;-71
2021/04/13 04:55:49;;;;;;;1.20;1.03;;;;;;;1.67;94.73;102246.53;5097466;28;20444;-71
2021/04/13 04:58:15;;;;;;;0.40;0.40;;;;;;;1.66;93.96;102247.56;5097041;28;20459;-70
2021/04/13 05:00:41;;;;;;;0.70;0.40;;;;;;;1.69;93.56;102247.97;5097322;28;20438;-70
2021/04/13 05:03:07;;;;;;;0.77;0.77;;;;;;;1.71;94.14;102248.59;5096738;28;20490;-72
2021/04/13 05:05:33;;;;;;;1.37;1.27;;;;;;;1.75;94.99;102252.50;5097060;28;20901;-70
2021/04/13 05:07:59;;;;;;;1.13;0.90;;;;;;;1.81;95.44;102260.75;5096990;28;20533;-69
2021/04/13 05:10:25;;;;;;;0.67;0.40;;;;;;;1.84;95.62;102261.16;5096960;28;20432;-70
2021/04/13 05:12:52;;;;;;;0.60;0.60;;;;;;;1.89;96.05;102260.56;5096870;28;20791;-70
2021/04/13 05:15:18;;;;;;;0.80;0.67;;;;;;;1.98;96.07;102264.69;5096761;28;20444;-70
2021/04/13 05:17:44;;;;;;;0.77;0.47;;;;;;;2.06;95.94;102266.38;5096781;28;20444;-69
2021/04/13 05:20:11;;;;;;;0.77;0.53;;;;;;;2.15;95.35;102260.63;5096798;28;20792;-69
2021/04/13 05:22:37;;;;;;;3.13;2.93;;;;;;;2.22;94.86;102263.31;5096683;28;20487;-69
2021/04/13 05:25:04;;;;;;;0.40;0.30;;;;;;;2.24;94.37;102263.91;5096585;28;20464;-69
2021/04/13 05:27:30;;;;;;;0.50;0.40;;;;;;;2.25;94.69;102270.91;5096667;28;20443;-69
2021/04/13 05:29:57;;;;;;;1.90;0.70;;;;;;;2.32;94.70;102263.72;5096607;28;20523;-69
2021/04/13 05:32:23;;;;;;;1.40;0.90;;;;;;;2.37;94.48;102266.59;5096543;28;20441;-69
2021/04/13 05:34:48;;;;;;;0.40;0.30;;;;;;;2.40;94.09;102276.09;5096409;28;20460;-69
2021/04/13 05:37:14;;;;;;;2.10;1.07;;;;;;;2.42;93.99;102268.66;5096411;28;20448;-69
2021/04/13 05:39:40;;;;;;;1.50;0.70;;;;;;;2.47;93.65;102268.88;5096393;28;20953;-69
2021/04/13 05:42:07;;;;;;;2.73;1.10;;;;;;;2.48;93.26;102274.03;5096249;28;20476;-69
2021/04/13 05:44:33;;;;;;;4.10;1.77;;;;;;;2.49;93.35;102275.66;5096209;28;20460;-69
2021/04/13 05:47:01;;;;;;;0.40;0.40;;;;;;;2.54;93.68;102275.06;5095907;28;20805;-71
2021/04/13 05:49:26;;;;;;;0.50;0.43;;;;;;;2.66;93.66;102272.59;5096218;28;20467;-72
2021/04/13 05:51:52;;;;;;;0.60;0.50;;;;;;;2.74;93.81;102280.38;5096179;28;20444;-70
2021/04/13 05:54:19;;;;;;;1.53;1.37;;;;;;;2.71;92.68;102272.78;5096119;28;20452;-71
2021/04/13 05:56:45;;;;;;;1.00;1.00;;;;;;;2.75;91.96;102274.84;5096357;28;20444;-76
2021/04/13 05:59:15;;;;;;;1.00;0.50;;;;;;;2.80;91.91;102276.09;5096015;28;20441;-70
2021/04/13 06:01:48;;;;;;;4.37;1.23;;;;;;;2.86;92.68;102277.91;5095870;28;20440;-71
2021/04/13 06:04:16;;;;;;;0.67;0.60;;;;;;;2.89;91.82;102277.50;5095639;28;20512;-71
2021/04/13 06:06:42;;;;;;;1.40;1.20;;;;;;;2.93;91.31;102284.09;5096071;28;20444;-72
2021/04/13 06:09:08;;;;;;;0.63;0.63;;;;;;;2.91;91.33;102286.13;5096036;28;20444;-74
2021/04/13 06:11:34;;;;;;;0.63;0.50;;;;;;;2.97;91.57;102282.66;5095906;28;20474;-73
2021/04/13 06:14:01;;;;;;;2.60;1.60;;;;;;;3.04;91.25;102288.81;5095646;28;20464;-74
2021/04/13 06:16:33;;;;;;;0.50;0.40;;;;;;;3.03;90.80;102287.97;5095554;28;20428;-73
2021/04/13 06:18:59;;;;;;;0.97;0.93;;;;;;;3.06;90.46;102291.28;5095873;28;20429;-73
2021/04/13 06:21:25;;;;;;;1.53;0.70;;;;;;;3.11;90.57;102294.97;5095756;28;20448;-73
2021/04/13 06:23:51;;;;;;;0.80;0.80;;;;;;;3.15;89.96;102298.06;5095310;28;20495;-71
2021/04/13 06:26:17;;;;;;;0.87;0.87;;;;;;;3.18;89.96;102305.66;5095421;28;20940;-71
2021/04/13 06:28:43;;;;;;;0.70;0.70;;;;;;;3.16;90.35;102307.72;5094986;28;20980;-72
2021/04/13 06:31:09;;;;;;;2.83;0.70;;;;;;;3.20;90.29;102304.44;5101742;28;20489;-72
2021/04/13 06:33:35;;;;;;;2.30;1.57;;;;;;;3.28;90.05;102309.56;5095521;28;20453;-73
2021/04/13 06:36:03;;;;;;;0.50;0.50;;;;;;;3.31;89.58;102304.81;5095639;28;20448;-71
2021/04/13 06:38:30;;;;;;;1.03;1.00;;;;;;;3.33;89.54;102308.13;5095379;28;20494;-73
2021/04/13 06:41:02;;;;;;;2.33;1.43;;;;;;;3.42;89.66;102317.56;5095299;28;20440;-73
2021/04/13 06:43:53;;;;;;;1.27;0.80;;;;;;;3.55;89.53;102312.16;5095226;28;20571;-72
2021/04/13 06:46:25;;;;;;;0.50;0.50;;;;;;;3.62;88.81;102310.28;5095254;28;20448;-73
2021/04/13 06:49:09;;;;;;;4.00;3.40;;;;;;;3.71;88.56;102310.84;5095181;28;20424;-71
2021/04/13 06:51:49;;;;;;;1.70;1.60;;;;;;;3.79;89.08;102314.13;5095020;28;20409;-73
2021/04/13 06:54:24;;;;;;;1.30;1.20;;;;;;;3.87;88.43;102317.59;5094747;28;20848;-72
2021/04/13 06:57:11;;;;;;;1.47;0.70;;;;;;;3.93;88.64;102308.69;5094638;28;20435;-71
2021/04/13 07:00:04;;;;;;;1.80;1.70;;;;;;;4.05;87.87;102315.03;5094601;28;20913;-71
2021/04/13 07:02:38;;;;;;;3.03;1.23;;;;;;;4.14;87.24;102321.78;5093992;28;21049;-72
2021/04/13 07:05:08;;;;;;;1.00;0.73;;;;;;;4.26;87.49;102314.72;5094348;28;20476;-71
2021/04/13 07:07:43;;;;;;;1.33;1.23;;;;;;;4.32;86.17;102312.19;5094706;28;20436;-72
2021/04/13 07:10:20;;;;;;;3.37;3.17;;;;;;;4.34;85.59;102320.84;5094684;28;20431;-73
2021/04/13 07:12:52;;;;;;;0.70;0.60;;;;;;;4.36;86.20;102319.59;5094903;28;20424;-72
2021/04/13 07:15:25;;;;;;;0.40;0.30;;;;;;;4.45;86.04;102325.53;5095073;28;20903;-72
2021/04/13 07:17:55;;;;;;;1.60;0.50;;;;;;;4.59;85.61;102335.13;5094644;28;20799;-72
2021/04/13 07:20:25;;;;;;;0.83;0.83;;;;;;;4.67;85.03;102323.28;5094563;28;20425;-72
2021/04/13 07:22:57;;;;;;;1.90;1.77;;;;;;;4.70;84.91;102326.38;5093935;28;20476;-71
2021/04/13 07:25:28;;;;;;;0.40;0.30;;;;;;;4.90;84.93;102328.06;5094062;28;20881;-71
2021/04/13 07:27:58;;;;;;;0.60;0.40;;;;;;;5.17;83.53;102325.94;5094056;28;20464;-72
2021/04/13 07:30:28;;;;;;;0.60;0.53;;;;;;;5.22;82.97;102318.88;5094428;28;20819;-72
2021/04/13 07:32:55;;;;;;;2.77;2.40;;;;;;;5.13;83.10;102319.38;5094108;28;20557;-72
2021/04/13 07:35:23;;;;;;;1.47;0.77;;;;;;;5.26;84.14;102317.38;5093835;28;21059;-72
2021/04/13 07:37:51;;;;;;;1.27;1.17;;;;;;;5.42;82.35;102323.22;5094199;28;20561;-71
2021/04/13 07:40:22;;;;;;;0.60;0.60;;;;;;;5.56;81.99;102319.34;5094099;28;20818;-71
2021/04/13 07:42:54;;;;;;;0.87;0.60;;;;;;;5.78;82.55;102328.56;5093989;28;20465;-72
2021/04/13 07:45:31;;;;;;;0.50;0.40;;;;;;;5.94;81.34;102320.97;5094208;28;20429;-72
2021/04/13 07:48:17;;;;;;;0.80;0.50;;;;;;;5.91;80.60;102319.53;5093941;28;20417;-74
2021/04/13 07:50:53;;;;;;;0.50;0.43;;;;;;;5.88;80.53;102328.03;5094173;28;20444;-73
2021/04/13 07:53:32;;;;;;;1.27;1.17;;;;;;;5.95;79.72;102323.44;5093694;28;21011;-73
2021/04/13 07:56:08;;;;;;;0.83;0.73;;;;;;;6.12;79.94;102331.69;5093450;28;20910;-73
2021/04/13 07:58:47;;;;;;;0.73;0.73;;;;;;;6.35;78.94;102332.84;5093701;28;20467;-73
2021/04/13 08:01:14;;;;;;;1.93;1.10;;;;;;;6.42;78.26;102329.00;5093728;28;20478;-73
2021/04/13 08:03:40;;;;;;;1.37;1.27;;;;;;;6.50;76.89;102325.94;5092972;28;20554;-74
2021/04/13 08:06:38;;;;;;;0.80;0.80;;;;;;;6.66;77.23;102321.78;5093544;28;20428;-73
2021/04/13 08:09:25;;;;;;;1.37;1.00;;;;;;;6.76;75.84;102326.59;5093639;28;20518;-73
2021/04/13 08:12:07;;;;;;;1.13;1.00;;;;;;;6.88;76.32;102321.22;5093839;28;20435;-73
2021/04/13 08:14:35;;;;;;;0.93;0.73;;;;;;;6.98;75.79;102321.47;5098801;28;20468;-74
2021/04/13 08:17:07;;;;;;;0.40;0.30;;;;;;;7.02;75.75;102322.63;5092658;28;20987;-73
2021/04/13 08:19:34;;;;;;;1.20;1.10;;;;;;;7.08;75.52;102327.91;5093568;28;20948;-73
2021/04/13 08:22:04;;;;;;;0.70;0.60;;;;;;;7.19;74.06;102322.75;5093257;28;20448;-74
2021/04/13 08:24:40;;;;;;;0.80;0.60;;;;;;;7.23;73.74;102324.75;5093176;28;20453;-74
2021/04/13 08:27:23;;;;;;;0.40;0.30;;;;;;;7.19;73.37;102339.75;5093131;28;20416;-73
2021/04/13 08:30:09;;;;;;;1.00;1.00;;;;;;;7.21;72.36;102334.91;5093387;28;20421;-74
2021/04/13 08:32:51;;;;;;;0.77;0.60;;;;;;;7.20;72.00;102335.16;5089788;28;20448;-74
2021/04/13 08:35:30;;;;;;;1.30;0.70;;;;;;;7.11;71.65;102334.69;5093254;28;20428;-74
2021/04/13 08:38:23;;;;;;;0.67;0.40;;;;;;;7.17;73.02;102331.09;5093328;28;20433;-73
2021/04/13 08:41:11;;;;;;;2.73;2.47;;;;;;;7.04;72.25;102325.94;5059205;28;20452;-74
2021/04/13 08:43:50;;;;;;;0.40;0.20;;;;;;;7.13;73.27;102332.59;5093099;28;20484;-74
2021/04/13 08:46:35;;;;;;;1.63;1.53;;;;;;;7.23;72.68;102329.31;5093230;28;20493;-72
2021/04/13 08:49:05;;;;;;;0.50;0.40;;;;;;;7.26;72.47;102335.06;5093521;28;20438;-71
2021/04/13 08:51:36;;;;;;;1.90;0.67;;;;;;;7.31;72.87;102342.44;5093169;28;20428;-73
2021/04/13 08:54:24;;;;;;;0.97;0.60;;;;;;;7.42;70.09;102338.09;5093106;28;20490;-73
2021/04/13 08:56:57;;;;;;;0.70;0.67;;;;;;;7.38;70.91;102336.91;5093065;28;20511;-73
2021/04/13 08:59:39;;;;;;;0.40;0.30;;;;;;;7.28;70.03;102334.81;5093144;28;20436;-73
2021/04/13 09:02:12;;;;;;;1.47;0.77;;;;;;;7.13;70.82;102338.00;5093024;28;20420;-73
2021/04/13 09:04:38;;;;;;;0.53;0.40;;;;;;;7.22;71.81;102333.06;5092966;28;20479;-73
2021/04/13 09:07:08;;;;;;;0.50;0.40;;;;;;;7.25;69.54;102338.78;5093045;28;20828;-73
2021/04/13 09:09:44;;;;;;;0.60;0.40;;;;;;;7.43;71.03;102339.72;5093001;28;20957;-73
2021/04/13 09:12:23;;;;;;;0.70;0.40;;;;;;;7.72;69.26;102341.44;5093077;28;20440;-72
2021/04/13 09:14:53;;;;;;;0.57;0.57;;;;;;;7.76;68.71;102339.91;5092513;28;20995;-73
2021/04/13 09:17:30;;;;;;;14.93;1.23;;;;;;;7.86;67.42;102347.38;5092811;28;20939;-74
2021/04/13 09:20:10;;;;;;;0.40;0.30;;;;;;;7.91;66.98;102339.38;5093092;28;20785;-74
2021/04/13 09:22:47;;;;;;;1.97;0.90;;;;;;;7.81;65.87;102334.59;5092972;28;20464;-73
2021/04/13 09:25:20;;;;;;;0.40;0.27;;;;;;;7.89;66.73;102336.09;5093511;28;20451;-73
2021/04/13 09:27:53;;;;;;;0.50;0.40;;;;;;;8.14;67.69;102329.53;5096805;28;20824;-70
2021/04/13 09:30:26;;;;;;;1.23;0.67;;;;;;;8.18;66.65;102326.13;5096556;28;20421;-72
2021/04/13 09:33:03;;;;;;;0.80;0.37;;;;;;;8.05;66.50;102332.63;5096839;28;20421;-72
2021/04/13 09:35:38;;;;;;;1.07;0.60;;;;;;;8.00;65.79;102334.41;5096522;28;20427;-71
2021/04/13 09:38:33;;;;;;;0.40;0.30;;;;;;;8.15;64.21;102323.94;5096553;28;20409;-68
2021/04/13 09:41:11;;;;;;;1.13;0.63;;;;;;;8.11;64.08;102325.47;5096161;28;20460;-68
2021/04/13 09:43:51;;;;;;;1.60;0.63;;;;;;;7.83;64.14;102328.94;5096255;28;20487;-69
2021/04/13 09:46:30;;;;;;;0.50;0.30;;;;;;;7.63;65.49;102325.88;5096395;28;20794;-68
2021/04/13 09:49:13;;;;;;;0.50;0.40;;;;;;;7.71;66.67;102325.50;5095870;28;20470;-68
2021/04/13 09:52:06;;;;;;;0.40;0.30;;;;;;;7.72;64.84;102327.94;5095818;28;20781;-68
2021/04/13 09:54:35;;;;;;;0.80;0.50;;;;;;;7.86;63.51;102323.09;5096054;28;20883;-68
2021/04/13 09:57:23;;;;;;;0.90;0.67;;;;;;;7.93;62.75;102323.78;5095483;28;20445;-68
2021/04/13 10:00:28;;;;;;;0.40;0.30;;;;;;;7.88;63.79;102326.38;5098799;28;20413;-68
2021/04/13 10:03:18;;;;;;;0.63;0.60;;;;;;;8.01;64.62;102322.56;5073594;28;20496;-68
2021/04/13 10:05:48;;;;;;;0.60;0.60;;;;;;;7.97;63.65;102316.00;5066120;28;20449;-68
2021/04/13 10:08:21;;;;;;;0.50;0.37;;;;;;;7.85;63.58;102310.66;5095432;28;20900;-68
2021/04/13 10:10:57;;;;;;;0.80;0.60;;;;;;;7.76;64.75;102323.72;5055601;28;20423;-68
2021/04/13 10:14:04;;;;;;;0.70;0.50;;;;;;;7.70;65.12;102316.59;5055435;28;20465;-68
2021/04/13 10:16:34;;;;;;;0.57;0.47;;;;;;;7.84;64.04;102314.44;5054594;28;20438;-68
2021/04/13 10:19:29;;;;;;;0.50;0.43;;;;;;;7.98;64.24;102313.09;5055429;28;20437;-69
2021/04/13 10:22:36;;;;;;;0.83;0.67;;;;;;;8.02;64.44;102324.22;5055591;28;20433;-69
2021/04/13 10:25:39;;;;;;;4.20;1.37;;;;;;;8.21;63.99;102333.75;5055256;28;20588;-69
2021/04/13 10:28:25;;;;;;;0.97;0.53;;;;;;;8.16;62.75;102325.56;5055240;28;20430;-72
2021/04/13 10:31:36;;;;;;;0.70;0.70;;;;;;;8.16;63.76;102322.88;5054915;28;20850;-69
2021/04/13 10:34:29;;;;;;;0.40;0.30;;;;;;;8.39;65.39;102318.44;5054999;28;20469;-69
2021/04/13 10:37:16;;;;;;;0.70;0.40;;;;;;;8.90;61.58;102320.09;5054087;28;20477;-68
2021/04/13 10:39:45;;;;;;;0.40;0.30;;;;;;;9.01;58.85;102312.94;5055035;28;20427;-68
2021/04/13 10:42:49;;;;;;;2.47;0.57;;;;;;;8.87;59.02;102312.47;5054866;28;20446;-69
2021/04/13 10:45:54;;;;;;;0.50;0.37;;;;;;;8.81;58.28;102308.06;5054824;28;20462;-68
2021/04/13 10:48:51;;;;;;;0.70;0.30;;;;;;;8.77;58.61;102302.34;5045784;28;20484;-69
2021/04/13 10:51:55;;;;;;;0.73;0.60;;;;;;;8.97;61.00;102304.53;5055046;28;20437;-69
2021/04/13 10:54:45;;;;;;;0.40;0.30;;;;;;;9.12;56.41;102319.31;5054846;28;20465;-71
2021/04/13 10:57:48;;;;;;;0.40;0.30;;;;;;;8.85;58.90;102303.78;5054674;28;20442;-70
2021/04/13 11:00:28;;;;;;;1.23;0.97;;;;;;;9.08;59.68;102308.22;5055920;28;20434;-70
2021/04/13 11:03:38;;;;;;;1.33;0.93;;;;;;;9.10;58.74;102306.06;5054227;28;20466;-70
2021/04/13 11:06:31;;;;;;;0.57;0.57;;;;;;;8.72;60.16;102314.94;5054471;28;20469;-68
2021/04/13 11:09:36;;;;;;;0.67;0.47;;;;;;;8.52;60.38;102310.03;5071968;28;20460;-70
2021/04/13 11:12:18;;;;;;;2.00;1.00;;;;;;;8.39;59.89;102316.56;5094459;28;20494;-70
2021/04/13 11:15:17;;;;;;;2.30;0.67;;;;;;;8.45;60.47;102312.03;5094125;28;20473;-69
2021/04/13 11:18:00;;;;;;;0.60;0.40;;;;;;;8.19;59.03;102303.50;5094456;28;20482;-69
2021/04/13 11:20:56;;;;;;;0.53;0.40;;;;;;;9.08;56.90;102310.91;5094409;28;20433;-69
2021/04/13 11:23:45;;;;;;;0.70;0.70;;;;;;;10.43;53.57;102291.38;5094299;28;20579;-70
2021/04/13 11:26:48;;;;;;;3.80;1.07;;;;;;;11.93;50.31;102298.22;5094360;28;20478;-69
2021/04/13 11:29:47;;;;;;;0.90;0.40;;;;;;;11.71;48.29;102314.69;5093992;28;20924;-71
2021/04/13 11:32:47;;;;;;;0.40;0.30;;;;;;;11.71;48.30;102306.53;5093643;28;20448;-71
2021/04/13 11:35:21;;;;;;;0.53;0.53;;;;;;;11.58;48.68;102300.50;5094038;28;20465;-71
2021/04/13 11:37:57;;;;;;;0.50;0.30;;;;;;;10.98;48.19;102301.84;5094034;28;20428;-72
2021/04/13 11:40:49;;;;;;;0.40;0.23;;;;;;;10.99;49.33;102299.94;5094242;28;20425;-72
2021/04/13 11:43:19;;;;;;;0.50;0.33;;;;;;;10.79;49.99;102298.72;5099597;28;21023;-72
2021/04/13 11:46:00;;;;;;;0.47;0.40;;;;;;;10.83;50.63;102301.72;5094030;28;20471;-72
2021/04/13 11:48:35;;;;;;;0.50;0.30;;;;;;;11.77;49.30;102300.84;5093714;28;20417;-72
2021/04/13 11:51:04;;;;;;;0.43;0.30;;;;;;;11.80;47.63;102292.19;5094209;28;20443;-73
2021/04/13 11:53:35;;;;;;;0.50;0.37;;;;;;;12.16;47.65;102289.56;5093764;28;20471;-72
2021/04/13 11:56:02;;;;;;;0.50;0.50;;;;;;;12.31;47.24;102286.88;5093834;28;20428;-73
2021/04/13 11:58:32;;;;;;;0.50;0.50;;;;;;;13.10;46.30;102288.19;5093761;28;20453;-72
2021/04/13 12:01:31;;;;;;;17.20;2.00;;;;;;;13.72;43.38;102286.06;5093704;28;20448;-72
2021/04/13 12:04:00;;;;;;;0.93;0.60;;;;;;;12.76;44.45;102290.69;5093189;28;20484;-73
2021/04/13 12:06:49;;;;;;;0.60;0.30;;;;;;;12.00;46.53;102288.75;5093642;28;20452;-72